sensor_id;sensor_type;location;lat;lon;timestamp;pressure;altitude;pressure_sealevel;temperature;humidity
5609;BME280;2826;51.354;9.588;2023-04-05T00:00:59;98884.47;;;2.85;54.23
5609;BME280;2826;51.354;9.588;2023-04-05T00:03:33;98896.47;;;3.03;54.19
5609;BME280;2826;51.354;9.588;2023-04-05T00:13:25;98886.19;;;2.91;54.78
5609;BME280;2826;51.354;9.588;2023-04-05T00:15:52;98887.03;;;2.90;55.01
5609;BME280;2826;51.354;9.588;2023-04-05T00:18:22;98891.31;;;2.89;54.89
5609;BME280;2826;51.354;9.588;2023-04-05T00:20:49;98886.16;;;2.87;54.81
5609;BME280;2826;51.354;9.588;2023-04-05T00:23:16;98888.75;;;2.84;54.92
5609;BME280;2826;51.354;9.588;2023-04-05T00:25:45;98885.28;;;2.79;55.18
5609;BME280;2826;51.354;9.588;2023-04-05T00:28:12;98878.44;;;2.75;55.44
5609;BME280;2826;51.354;9.588;2023-04-05T00:30:40;98879.28;;;2.72;55.46
5609;BME280;2826;51.354;9.588;2023-04-05T00:33:07;98875.88;;;2.69;55.93
5609;BME280;2826;51.354;9.588;2023-04-05T00:35:34;98873.31;;;2.69;55.96
5609;BME280;2826;51.354;9.588;2023-04-05T00:38:01;98877.56;;;2.68;56.30
5609;BME280;2826;51.354;9.588;2023-04-05T00:40:28;98878.41;;;2.67;56.56
5609;BME280;2826;51.354;9.588;2023-04-05T00:42:55;98882.69;;;2.68;56.44
5609;BME280;2826;51.354;9.588;2023-04-05T00:45:22;98844.19;;;2.42;57.04
5609;BME280;2826;51.354;9.588;2023-04-05T00:47:51;98876.69;;;2.61;57.07
5609;BME280;2826;51.354;9.588;2023-04-05T00:50:18;98877.53;;;2.59;57.20
5609;BME280;2826;51.354;9.588;2023-04-05T00:52:47;98862.97;;;2.47;57.35
5609;BME280;2826;51.354;9.588;2023-04-05T00:55:15;98873.25;;;2.53;57.28
5609;BME280;2826;51.354;9.588;2023-04-05T00:57:45;98880.06;;;2.50;57.42
5609;BME280;2826;51.354;9.588;2023-04-05T01:00:16;98870.63;;;2.45;57.38
5609;BME280;2826;51.354;9.588;2023-04-05T01:02:48;98867.22;;;2.43;57.33
5609;BME280;2826;51.354;9.588;2023-04-05T01:05:32;98862.06;;;2.37;57.41
5609;BME280;2826;51.354;9.588;2023-04-05T01:08:07;98850.94;;;2.24;57.45
5609;BME280;2826;51.354;9.588;2023-04-05T01:10:43;98870.59;;;2.30;57.27
5609;BME280;2826;51.354;9.588;2023-04-05T01:13:11;98867.16;;;2.26;57.54
5609;BME280;2826;51.354;9.588;2023-04-05T01:15:39;98871.41;;;2.27;57.53
5609;BME280;2826;51.354;9.588;2023-04-05T01:18:07;98862.00;;;2.23;57.71
5609;BME280;2826;51.354;9.588;2023-04-05T01:20:41;98862.88;;;2.22;57.64
5609;BME280;2826;51.354;9.588;2023-04-05T01:23:24;98859.41;;;2.18;57.47
5609;BME280;2826;51.354;9.588;2023-04-05T01:26:14;98863.66;;;2.15;57.69
5609;BME280;2826;51.354;9.588;2023-04-05T01:28:58;98859.38;;;2.11;57.76
5609;BME280;2826;51.354;9.588;2023-04-05T01:31:36;98848.28;;;2.07;57.87
5609;BME280;2826;51.354;9.588;2023-04-05T01:34:12;98836.28;;;1.93;57.94
5609;BME280;2826;51.354;9.588;2023-04-05T01:36:48;98830.28;;;1.88;57.88
5609;BME280;2826;51.354;9.588;2023-04-05T01:39:16;98849.09;;;2.00;58.07
5609;BME280;2826;51.354;9.588;2023-04-05T01:41:46;98843.94;;;1.98;58.08
5609;BME280;2826;51.354;9.588;2023-04-05T01:44:13;98841.41;;;2.00;57.99
5609;BME280;2826;51.354;9.588;2023-04-05T01:46:41;98844.78;;;1.95;57.77
5609;BME280;2826;51.354;9.588;2023-04-05T01:49:09;98843.94;;;1.92;57.88
5609;BME280;2826;51.354;9.588;2023-04-05T01:51:36;98849.91;;;1.91;57.70
5609;BME280;2826;51.354;9.588;2023-04-05T01:54:06;98849.00;;;1.89;57.94
5609;BME280;2826;51.354;9.588;2023-04-05T01:56:34;98849.88;;;1.89;57.78
5609;BME280;2826;51.354;9.588;2023-04-05T01:59:02;98826.75;;;1.71;57.72
5609;BME280;2826;51.354;9.588;2023-04-05T02:01:30;98855.81;;;1.83;57.85
5609;BME280;2826;51.354;9.588;2023-04-05T02:03:59;98859.22;;;1.82;58.19
5609;BME280;2826;51.354;9.588;2023-04-05T02:06:25;98853.22;;;1.80;58.25
5609;BME280;2826;51.354;9.588;2023-04-05T02:08:52;98848.09;;;1.79;58.24
5609;BME280;2826;51.354;9.588;2023-04-05T02:11:19;98846.41;;;1.79;58.38
5609;BME280;2826;51.354;9.588;2023-04-05T02:13:46;98842.13;;;1.78;58.49
5609;BME280;2826;51.354;9.588;2023-04-05T02:16:13;98844.72;;;1.81;58.36
5609;BME280;2826;51.354;9.588;2023-04-05T02:18:41;98835.31;;;1.80;58.21
5609;BME280;2826;51.354;9.588;2023-04-05T02:21:16;98832.78;;;1.83;58.00
5609;BME280;2826;51.354;9.588;2023-04-05T02:23:43;98834.50;;;1.85;58.38
5609;BME280;2826;51.354;9.588;2023-04-05T02:26:10;98841.31;;;1.86;58.16
5609;BME280;2826;51.354;9.588;2023-04-05T02:28:38;98834.50;;;1.86;57.85
5609;BME280;2826;51.354;9.588;2023-04-05T02:31:08;98840.47;;;1.83;58.16
5609;BME280;2826;51.354;9.588;2023-04-05T02:33:37;98832.75;;;1.80;58.10
5609;BME280;2826;51.354;9.588;2023-04-05T02:36:06;98836.16;;;1.78;58.33
5609;BME280;2826;51.354;9.588;2023-04-05T02:38:35;98818.19;;;1.64;58.31
5609;BME280;2826;51.354;9.588;2023-04-05T02:41:02;98833.56;;;1.72;58.27
5609;BME280;2826;51.354;9.588;2023-04-05T02:43:29;98832.66;;;1.65;58.56
5609;BME280;2826;51.354;9.588;2023-04-05T02:45:58;98825.81;;;1.59;58.66
5609;BME280;2826;51.354;9.588;2023-04-05T02:48:25;98818.13;;;1.54;58.79
5609;BME280;2826;51.354;9.588;2023-04-05T02:50:53;98828.31;;;1.51;58.75
5609;BME280;2826;51.354;9.588;2023-04-05T02:53:20;98818.06;;;1.48;58.90
5609;BME280;2826;51.354;9.588;2023-04-05T02:55:59;98824.88;;;1.46;58.79
5609;BME280;2826;51.354;9.588;2023-04-05T02:58:28;98793.22;;;1.30;58.94
5609;BME280;2826;51.354;9.588;2023-04-05T03:00:55;98819.75;;;1.45;58.77
5609;BME280;2826;51.354;9.588;2023-04-05T03:03:29;98823.16;;;1.43;58.77
5609;BME280;2826;51.354;9.588;2023-04-05T03:05:58;98820.59;;;1.47;58.59
5609;BME280;2826;51.354;9.588;2023-04-05T03:08:32;98819.75;;;1.46;58.67
5609;BME280;2826;51.354;9.588;2023-04-05T03:11:04;98812.91;;;1.42;58.61
5609;BME280;2826;51.354;9.588;2023-04-05T03:13:33;98817.19;;;1.46;58.40
5609;BME280;2826;51.354;9.588;2023-04-05T03:16:04;98816.34;;;1.47;58.19
5609;BME280;2826;51.354;9.588;2023-04-05T03:18:31;98816.38;;;1.50;57.97
5609;BME280;2826;51.354;9.588;2023-04-05T03:21:04;98797.50;;;1.33;58.09
5609;BME280;2826;51.354;9.588;2023-04-05T03:23:41;98818.91;;;1.47;57.79
5609;BME280;2826;51.354;9.588;2023-04-05T03:26:13;98817.22;;;1.51;57.81
5609;BME280;2826;51.354;9.588;2023-04-05T03:28:47;98820.63;;;1.51;57.56
5609;BME280;2826;51.354;9.588;2023-04-05T03:31:14;98818.06;;;1.50;57.52
5609;BME280;2826;51.354;9.588;2023-04-05T03:33:43;98815.50;;;1.48;57.39
5609;BME280;2826;51.354;9.588;2023-04-05T03:36:11;98815.47;;;1.47;57.58
5609;BME280;2826;51.354;9.588;2023-04-05T03:38:43;98795.81;;;1.35;57.23
5609;BME280;2826;51.354;9.588;2023-04-05T03:41:19;98806.16;;;1.50;57.30
5609;BME280;2826;51.354;9.588;2023-04-05T03:43:46;98813.81;;;1.53;57.44
5609;BME280;2826;51.354;9.588;2023-04-05T03:46:13;98812.16;;;1.57;57.31
5609;BME280;2826;51.354;9.588;2023-04-05T03:48:42;98815.56;;;1.59;57.17
5609;BME280;2826;51.354;9.588;2023-04-05T03:51:10;98808.78;;;1.61;57.01
5609;BME280;2826;51.354;9.588;2023-04-05T03:53:37;98810.50;;;1.65;56.97
5609;BME280;2826;51.354;9.588;2023-04-05T03:56:06;98805.41;;;1.67;56.90
5609;BME280;2826;51.354;9.588;2023-04-05T03:58:47;98796.03;;;1.66;56.72
5609;BME280;2826;51.354;9.588;2023-04-05T04:01:17;98797.72;;;1.65;56.63
5609;BME280;2826;51.354;9.588;2023-04-05T04:03:44;98802.81;;;1.61;56.85
5609;BME280;2826;51.354;9.588;2023-04-05T04:06:11;98796.81;;;1.59;57.06
5609;BME280;2826;51.354;9.588;2023-04-05T04:08:38;98782.19;;;1.39;57.10
5609;BME280;2826;51.354;9.588;2023-04-05T04:11:06;98759.09;;;1.26;57.34
5609;BME280;2826;51.354;9.588;2023-04-05T04:13:36;98799.31;;;1.46;57.67
5609;BME280;2826;51.354;9.588;2023-04-05T04:16:21;98781.31;;;1.34;57.43
5609;BME280;2826;51.354;9.588;2023-04-05T04:19:16;98799.25;;;1.40;58.19
5609;BME280;2826;51.354;9.588;2023-04-05T04:22:06;98802.66;;;1.39;58.23
5609;BME280;2826;51.354;9.588;2023-04-05T04:24:47;98798.41;;;1.39;58.32
5609;BME280;2826;51.354;9.588;2023-04-05T04:27:53;98801.78;;;1.37;58.54
5609;BME280;2826;51.354;9.588;2023-04-05T04:30:36;98795.81;;;1.36;58.59
5609;BME280;2826;51.354;9.588;2023-04-05T04:33:18;98789.00;;;1.38;58.40
5609;BME280;2826;51.354;9.588;2023-04-05T04:36:05;98790.66;;;1.33;58.62
5609;BME280;2826;51.354;9.588;2023-04-05T04:38:52;98788.91;;;1.27;58.58
5609;BME280;2826;51.354;9.588;2023-04-05T04:41:45;98794.03;;;1.27;59.04
5609;BME280;2826;51.354;9.588;2023-04-05T04:44:45;98789.78;;;1.26;59.00
5609;BME280;2826;51.354;9.588;2023-04-05T04:47:11;98792.31;;;1.26;59.01
5609;BME280;2826;51.354;9.588;2023-04-05T04:50:07;98796.59;;;1.29;58.93
5609;BME280;2826;51.354;9.588;2023-04-05T04:52:34;98788.97;;;1.32;58.72
5609;BME280;2826;51.354;9.588;2023-04-05T04:55:01;98789.84;;;1.33;58.66
5609;BME280;2826;51.354;9.588;2023-04-05T04:57:28;98772.72;;;1.24;58.47
5609;BME280;2826;51.354;9.588;2023-04-05T04:59:55;98793.25;;;1.35;58.42
5609;BME280;2826;51.354;9.588;2023-04-05T05:02:22;98789.00;;;1.35;58.43
5609;BME280;2826;51.354;9.588;2023-04-05T05:04:50;98800.91;;;1.33;58.59
5609;BME280;2826;51.354;9.588;2023-04-05T05:07:19;98801.75;;;1.34;58.68
5609;BME280;2826;51.354;9.588;2023-04-05T05:09:50;98815.38;;;1.36;58.61
5609;BME280;2826;51.354;9.588;2023-04-05T05:12:20;98774.28;;;1.06;58.99
5609;BME280;2826;51.354;9.588;2023-04-05T05:14:48;98814.44;;;1.21;59.20
5609;BME280;2826;51.354;9.588;2023-04-05T05:17:15;98821.25;;;1.19;59.46
5609;BME280;2826;51.354;9.588;2023-04-05T05:19:42;98810.94;;;1.11;59.85
5609;BME280;2826;51.354;9.588;2023-04-05T05:22:09;98815.25;;;1.17;60.59
5609;BME280;2826;51.354;9.588;2023-04-05T05:24:42;98816.13;;;1.21;60.43
5609;BME280;2826;51.354;9.588;2023-04-05T05:27:10;98810.22;;;1.23;60.23
5609;BME280;2826;51.354;9.588;2023-04-05T05:29:37;98789.66;;;1.14;60.07
5609;BME280;2826;51.354;9.588;2023-04-05T05:32:04;98812.78;;;1.29;60.35
5609;BME280;2826;51.354;9.588;2023-04-05T05:34:32;98746.88;;;0.86;60.88
5609;BME280;2826;51.354;9.588;2023-04-05T05:36:59;98804.25;;;1.24;61.21
5609;BME280;2826;51.354;9.588;2023-04-05T05:39:27;98813.66;;;1.30;60.99
5609;BME280;2826;51.354;9.588;2023-04-05T05:41:56;98811.13;;;1.35;60.89
5609;BME280;2826;51.354;9.588;2023-04-05T05:44:23;98812.03;;;1.40;61.29
5609;BME280;2826;51.354;9.588;2023-04-05T05:46:51;98788.09;;;1.32;61.52
5609;BME280;2826;51.354;9.588;2023-04-05T05:49:18;98815.56;;;1.54;61.48
5609;BME280;2826;51.354;9.588;2023-04-05T05:51:45;98814.78;;;1.65;61.52
5609;BME280;2826;51.354;9.588;2023-04-05T05:54:13;98808.03;;;1.75;61.33
5609;BME280;2826;51.354;9.588;2023-04-05T05:56:40;98808.97;;;1.91;60.91
5609;BME280;2826;51.354;9.588;2023-04-05T05:59:09;98813.28;;;2.03;60.57
5609;BME280;2826;51.354;9.588;2023-04-05T06:01:37;98814.22;;;2.17;60.02
5609;BME280;2826;51.354;9.588;2023-04-05T06:04:08;98814.28;;;2.33;59.36
5609;BME280;2826;51.354;9.588;2023-04-05T06:06:35;98819.44;;;2.47;58.83
5609;BME280;2826;51.354;9.588;2023-04-05T06:09:03;98817.81;;;2.58;58.28
5609;BME280;2826;51.354;9.588;2023-04-05T06:11:31;98818.66;;;2.64;58.78
5609;BME280;2826;51.354;9.588;2023-04-05T06:13:59;98807.59;;;2.68;59.74
5609;BME280;2826;51.354;9.588;2023-04-05T06:16:28;98809.34;;;2.84;59.46
5609;BME280;2826;51.354;9.588;2023-04-05T06:18:55;98807.63;;;2.96;58.88
5609;BME280;2826;51.354;9.588;2023-04-05T06:21:23;98807.66;;;3.07;58.59
5609;BME280;2826;51.354;9.588;2023-04-05T06:23:51;98783.75;;;3.05;57.23
5609;BME280;2826;51.354;9.588;2023-04-05T06:26:19;98804.25;;;3.34;56.83
5609;BME280;2826;51.354;9.588;2023-04-05T06:28:48;98797.41;;;3.44;55.94
5609;BME280;2826;51.354;9.588;2023-04-05T06:31:16;98787.16;;;3.49;55.48
5609;BME280;2826;51.354;9.588;2023-04-05T06:33:45;98798.22;;;3.71;54.95
5609;BME280;2826;51.354;9.588;2023-04-05T06:36:12;98805.91;;;3.84;55.00
5609;BME280;2826;51.354;9.588;2023-04-05T06:38:39;98796.47;;;3.95;54.00
5609;BME280;2826;51.354;9.588;2023-04-05T06:41:07;98803.28;;;4.09;53.65
5609;BME280;2826;51.354;9.588;2023-04-05T06:43:35;98804.09;;;4.25;53.44
5609;BME280;2826;51.354;9.588;2023-04-05T06:46:03;98798.91;;;4.31;52.69
5609;BME280;2826;51.354;9.588;2023-04-05T06:48:44;98799.72;;;4.42;52.62
5609;BME280;2826;51.354;9.588;2023-04-05T06:51:31;98803.09;;;4.57;51.90
5609;BME280;2826;51.354;9.588;2023-04-05T06:53:58;98797.00;;;4.70;51.82
5609;BME280;2826;51.354;9.588;2023-04-05T06:56:27;98805.53;;;4.76;53.00
5609;BME280;2826;51.354;9.588;2023-04-05T06:58:54;98803.84;;;4.76;54.35
5609;BME280;2826;51.354;9.588;2023-04-05T07:01:24;98813.34;;;4.58;55.49
5609;BME280;2826;51.354;9.588;2023-04-05T07:03:52;98792.84;;;4.46;55.14
5609;BME280;2826;51.354;9.588;2023-04-05T07:06:19;98801.44;;;4.50;55.71
5609;BME280;2826;51.354;9.588;2023-04-05T07:08:50;98797.16;;;4.44;55.84
5609;BME280;2826;51.354;9.588;2023-04-05T07:11:17;98788.63;;;4.32;56.80
5609;BME280;2826;51.354;9.588;2023-04-05T07:13:46;98799.75;;;4.39;56.93
5609;BME280;2826;51.354;9.588;2023-04-05T07:16:14;98793.72;;;4.45;57.14
5609;BME280;2826;51.354;9.588;2023-04-05T07:18:50;98791.97;;;4.56;56.43
5609;BME280;2826;51.354;9.588;2023-04-05T07:21:18;98799.63;;;4.64;56.45
5609;BME280;2826;51.354;9.588;2023-04-05T07:23:46;98790.22;;;4.63;56.25
5609;BME280;2826;51.354;9.588;2023-04-05T07:26:29;98790.16;;;4.73;56.04
5609;BME280;2826;51.354;9.588;2023-04-05T07:29:12;98782.34;;;4.85;55.64
5609;BME280;2826;51.354;9.588;2023-04-05T07:31:49;98784.06;;;4.89;55.15
5609;BME280;2826;51.354;9.588;2023-04-05T07:34:18;98778.81;;;5.05;54.83
5609;BME280;2826;51.354;9.588;2023-04-05T07:37:04;98777.84;;;5.21;54.29
5609;BME280;2826;51.354;9.588;2023-04-05T07:39:39;98758.19;;;5.14;53.25
5609;BME280;2826;51.354;9.588;2023-04-05T07:42:08;98787.91;;;5.43;52.21
5609;BME280;2826;51.354;9.588;2023-04-05T07:44:36;98787.00;;;5.52;51.87
5609;BME280;2826;51.354;9.588;2023-04-05T07:47:03;98789.38;;;5.74;51.80
5609;BME280;2826;51.354;9.588;2023-04-05T07:49:31;98785.81;;;5.87;51.14
5609;BME280;2826;51.354;9.588;2023-04-05T07:52:00;98785.66;;;6.05;49.82
5609;BME280;2826;51.354;9.588;2023-04-05T07:54:30;98781.28;;;6.11;47.93
5609;BME280;2826;51.354;9.588;2023-04-05T07:56:58;98754.75;;;6.03;47.78
5609;BME280;2826;51.354;9.588;2023-04-05T07:59:28;98786.94;;;6.42;46.75
5609;BME280;2826;51.354;9.588;2023-04-05T08:01:56;98788.44;;;6.58;45.85
5609;BME280;2826;51.354;9.588;2023-04-05T08:04:24;98767.00;;;6.54;45.60
5609;BME280;2826;51.354;9.588;2023-04-05T08:06:52;98782.94;;;6.83;45.94
5609;BME280;2826;51.354;9.588;2023-04-05T08:09:20;98730.00;;;6.59;44.49
5609;BME280;2826;51.354;9.588;2023-04-05T08:11:48;98780.69;;;7.18;43.99
5609;BME280;2826;51.354;9.588;2023-04-05T08:14:18;98763.50;;;7.17;42.52
5609;BME280;2826;51.354;9.588;2023-04-05T08:16:47;98785.53;;;7.38;41.28
5609;BME280;2826;51.354;9.588;2023-04-05T08:19:17;98786.56;;;7.26;41.41
5609;BME280;2826;51.354;9.588;2023-04-05T08:21:46;98772.94;;;7.19;41.12
5609;BME280;2826;51.354;9.588;2023-04-05T08:24:14;98777.84;;;7.37;41.84
5609;BME280;2826;51.354;9.588;2023-04-05T08:26:42;98774.38;;;7.36;40.81
5609;BME280;2826;51.354;9.588;2023-04-05T08:29:11;98774.50;;;7.30;40.70
5609;BME280;2826;51.354;9.588;2023-04-05T08:31:43;98765.78;;;7.36;41.39
5609;BME280;2826;51.354;9.588;2023-04-05T08:34:15;98772.44;;;7.49;40.60
5609;BME280;2826;51.354;9.588;2023-04-05T08:36:44;98765.44;;;7.56;40.23
5609;BME280;2826;51.354;9.588;2023-04-05T08:39:16;98761.31;;;7.47;39.20
5609;BME280;2826;51.354;9.588;2023-04-05T08:41:49;98766.91;;;7.69;39.83
5609;BME280;2826;51.354;9.588;2023-04-05T08:44:25;98749.84;;;7.64;38.75
5609;BME280;2826;51.354;9.588;2023-04-05T08:46:57;98770.53;;;7.61;38.10
5609;BME280;2826;51.354;9.588;2023-04-05T08:49:28;98770.34;;;7.19;39.32
5609;BME280;2826;51.354;9.588;2023-04-05T08:51:58;98765.53;;;6.98;39.21
5609;BME280;2826;51.354;9.588;2023-04-05T08:54:32;98771.66;;;6.92;39.55
5609;BME280;2826;51.354;9.588;2023-04-05T08:57:06;98745.28;;;6.74;39.45
5609;BME280;2826;51.354;9.588;2023-04-05T08:59:50;98735.88;;;6.70;40.05
5609;BME280;2826;51.354;9.588;2023-04-05T09:02:48;98773.34;;;6.93;40.61
5609;BME280;2826;51.354;9.588;2023-04-05T09:05:21;98781.06;;;6.95;40.12
5609;BME280;2826;51.354;9.588;2023-04-05T09:07:50;98769.06;;;6.93;39.64
5609;BME280;2826;51.354;9.588;2023-04-05T09:10:20;98756.16;;;6.93;39.44
5609;BME280;2826;51.354;9.588;2023-04-05T09:12:51;98753.50;;;6.98;39.81
5609;BME280;2826;51.354;9.588;2023-04-05T09:15:20;98769.66;;;7.10;39.96
5609;BME280;2826;51.354;9.588;2023-04-05T09:18:01;98768.78;;;7.11;40.53
5609;BME280;2826;51.354;9.588;2023-04-05T09:21:09;98764.03;;;7.39;39.23
5609;BME280;2826;51.354;9.588;2023-04-05T09:23:55;98760.78;;;7.75;38.96
5609;BME280;2826;51.354;9.588;2023-04-05T09:26:25;98768.63;;;8.16;38.63
5609;BME280;2826;51.354;9.588;2023-04-05T09:29:05;98765.84;;;8.27;38.19
5609;BME280;2826;51.354;9.588;2023-04-05T09:31:38;98765.09;;;8.20;37.50
5609;BME280;2826;51.354;9.588;2023-04-05T09:34:09;98762.03;;;8.01;38.62
5609;BME280;2826;51.354;9.588;2023-04-05T09:36:55;98762.91;;;8.02;38.72
5609;BME280;2826;51.354;9.588;2023-04-05T09:39:27;98760.13;;;8.11;38.90
5609;BME280;2826;51.354;9.588;2023-04-05T09:42:06;98764.38;;;8.14;38.19
5609;BME280;2826;51.354;9.588;2023-04-05T09:44:50;98758.31;;;8.15;39.00
5609;BME280;2826;51.354;9.588;2023-04-05T09:47:19;98758.38;;;8.11;39.02
5609;BME280;2826;51.354;9.588;2023-04-05T09:49:52;98755.75;;;8.15;38.86
5609;BME280;2826;51.354;9.588;2023-04-05T09:52:22;98735.47;;;7.94;37.45
5609;BME280;2826;51.354;9.588;2023-04-05T09:54:52;98725.75;;;8.07;38.15
5609;BME280;2826;51.354;9.588;2023-04-05T09:57:21;98753.06;;;8.62;37.18
5609;BME280;2826;51.354;9.588;2023-04-05T09:59:51;98754.09;;;8.55;36.58
5609;BME280;2826;51.354;9.588;2023-04-05T10:02:20;98746.28;;;8.56;36.32
5609;BME280;2826;51.354;9.588;2023-04-05T10:04:48;98754.16;;;8.50;36.65
5609;BME280;2826;51.354;9.588;2023-04-05T10:07:17;98741.06;;;8.97;37.61
5609;BME280;2826;51.354;9.588;2023-04-05T10:09:52;98745.69;;;9.54;36.81
5609;BME280;2826;51.354;9.588;2023-04-05T10:12:23;98735.97;;;9.96;35.56
5609;BME280;2826;51.354;9.588;2023-04-05T10:14:53;98735.75;;;10.33;35.69
5609;BME280;2826;51.354;9.588;2023-04-05T10:17:27;98722.69;;;10.67;34.33
5609;BME280;2826;51.354;9.588;2023-04-05T10:20:08;98726.63;;;10.79;34.25
5609;BME280;2826;51.354;9.588;2023-04-05T10:22:44;98729.28;;;11.04;33.21
5609;BME280;2826;51.354;9.588;2023-04-05T10:25:25;98724.44;;;11.20;33.98
5609;BME280;2826;51.354;9.588;2023-04-05T10:28:03;98727.53;;;11.32;33.19
5609;BME280;2826;51.354;9.588;2023-04-05T10:30:43;98722.34;;;11.57;33.19
5609;BME280;2826;51.354;9.588;2023-04-05T10:33:19;98716.78;;;11.68;32.63
5609;BME280;2826;51.354;9.588;2023-04-05T10:36:02;98705.66;;;11.65;32.51
5609;BME280;2826;51.354;9.588;2023-04-05T10:38:50;98716.56;;;11.74;32.26
5609;BME280;2826;51.354;9.588;2023-04-05T10:41:21;98707.28;;;11.67;32.50
5609;BME280;2826;51.354;9.588;2023-04-05T10:43:57;98700.19;;;11.72;32.99
5609;BME280;2826;51.354;9.588;2023-04-05T10:46:50;98694.59;;;11.83;31.92
5609;BME280;2826;51.354;9.588;2023-04-05T10:49:38;98710.09;;;12.10;32.58
5609;BME280;2826;51.354;9.588;2023-04-05T10:52:22;98710.56;;;12.44;31.25
5609;BME280;2826;51.354;9.588;2023-04-05T10:54:56;98691.16;;;12.31;31.08
5609;BME280;2826;51.354;9.588;2023-04-05T10:57:26;98709.19;;;12.35;30.89
5609;BME280;2826;51.354;9.588;2023-04-05T10:59:55;98700.41;;;12.38;29.93
5609;BME280;2826;51.354;9.588;2023-04-05T11:02:22;98698.66;;;12.38;28.76
5609;BME280;2826;51.354;9.588;2023-04-05T11:04:53;98691.84;;;12.12;29.43
5609;BME280;2826;51.354;9.588;2023-04-05T11:07:22;98690.47;;;12.25;31.17
5609;BME280;2826;51.354;9.588;2023-04-05T11:12:19;98694.38;;;12.60;30.53
5609;BME280;2826;51.354;9.588;2023-04-05T11:15:30;98681.13;;;12.66;30.50
5609;BME280;2826;51.354;9.588;2023-04-05T11:18:09;98680.25;;;12.65;29.64
5609;BME280;2826;51.354;9.588;2023-04-05T11:20:46;98685.53;;;12.41;29.84
5609;BME280;2826;51.354;9.588;2023-04-05T11:23:23;98681.47;;;12.34;30.60
5609;BME280;2826;51.354;9.588;2023-04-05T11:26:05;98682.22;;;12.38;31.04
5609;BME280;2826;51.354;9.588;2023-04-05T11:29:01;98676.34;;;12.55;31.44
5609;BME280;2826;51.354;9.588;2023-04-05T11:31:39;98674.16;;;12.66;29.04
5609;BME280;2826;51.354;9.588;2023-04-05T11:34:25;98667.34;;;12.64;30.57
5609;BME280;2826;51.354;9.588;2023-04-05T11:36:53;98622.38;;;12.60;30.91
5609;BME280;2826;51.354;9.588;2023-04-05T11:39:28;98664.44;;;12.92;29.72
5609;BME280;2826;51.354;9.588;2023-04-05T11:41:59;98656.22;;;13.02;28.79
5609;BME280;2826;51.354;9.588;2023-04-05T11:44:29;98658.00;;;13.01;29.66
5609;BME280;2826;51.354;9.588;2023-04-05T11:47:03;98635.56;;;12.99;29.66
5609;BME280;2826;51.354;9.588;2023-04-05T11:49:37;98642.50;;;12.98;28.40
5609;BME280;2826;51.354;9.588;2023-04-05T11:52:14;98653.19;;;13.33;29.62
5609;BME280;2826;51.354;9.588;2023-04-05T11:54:42;98655.06;;;13.51;29.37
5609;BME280;2826;51.354;9.588;2023-04-05T11:57:12;98647.78;;;13.59;28.60
5609;BME280;2826;51.354;9.588;2023-04-05T11:59:41;98645.59;;;13.69;28.77
5609;BME280;2826;51.354;9.588;2023-04-05T12:02:12;98601.09;;;13.54;29.52
5609;BME280;2826;51.354;9.588;2023-04-05T12:04:39;98644.56;;;13.92;28.48
5609;BME280;2826;51.354;9.588;2023-04-05T12:07:11;98632.78;;;13.83;27.00
5609;BME280;2826;51.354;9.588;2023-04-05T12:09:59;98637.50;;;13.75;26.81
5609;BME280;2826;51.354;9.588;2023-04-05T12:12:27;98637.44;;;13.37;26.98
5609;BME280;2826;51.354;9.588;2023-04-05T12:14:59;98622.63;;;12.75;29.27
5609;BME280;2826;51.354;9.588;2023-04-05T12:17:42;98629.19;;;12.42;29.41
5609;BME280;2826;51.354;9.588;2023-04-05T12:20:11;98627.06;;;12.30;29.82
5609;BME280;2826;51.354;9.588;2023-04-05T12:22:41;98627.84;;;12.54;29.47
5609;BME280;2826;51.354;9.588;2023-04-05T12:25:10;98622.28;;;12.19;28.39
5609;BME280;2826;51.354;9.588;2023-04-05T12:27:40;98629.47;;;11.88;29.08
5609;BME280;2826;51.354;9.588;2023-04-05T12:30:10;98628.41;;;11.70;29.78
5609;BME280;2826;51.354;9.588;2023-04-05T12:32:44;98622.75;;;11.82;29.68
5609;BME280;2826;51.354;9.588;2023-04-05T12:35:15;98623.41;;;11.87;30.43
5609;BME280;2826;51.354;9.588;2023-04-05T12:37:46;98619.41;;;12.02;30.60
5609;BME280;2826;51.354;9.588;2023-04-05T12:40:19;98616.34;;;12.37;29.90
5609;BME280;2826;51.354;9.588;2023-04-05T12:42:50;98611.31;;;12.55;28.38
5609;BME280;2826;51.354;9.588;2023-04-05T12:45:22;98616.47;;;12.34;29.09
5609;BME280;2826;51.354;9.588;2023-04-05T12:47:55;98611.22;;;12.13;29.03
5609;BME280;2826;51.354;9.588;2023-04-05T12:50:26;98608.69;;;11.64;28.85
5609;BME280;2826;51.354;9.588;2023-04-05T12:52:55;98611.63;;;11.31;29.99
5609;BME280;2826;51.354;9.588;2023-04-05T12:55:25;98609.97;;;11.03;30.90
5609;BME280;2826;51.354;9.588;2023-04-05T12:57:55;98552.56;;;10.87;31.02
5609;BME280;2826;51.354;9.588;2023-04-05T13:00:25;98596.06;;;11.05;29.78
5609;BME280;2826;51.354;9.588;2023-04-05T13:02:57;98596.44;;;10.94;31.39
5609;BME280;2826;51.354;9.588;2023-04-05T13:05:27;98594.63;;;10.96;31.54
5609;BME280;2826;51.354;9.588;2023-04-05T13:07:55;98591.59;;;11.09;31.18
5609;BME280;2826;51.354;9.588;2023-04-05T13:10:23;98592.06;;;11.20;30.72
5609;BME280;2826;51.354;9.588;2023-04-05T13:12:54;98592.44;;;11.59;31.06
5609;BME280;2826;51.354;9.588;2023-04-05T13:15:24;98584.06;;;12.21;30.88
5609;BME280;2826;51.354;9.588;2023-04-05T13:17:55;98577.97;;;12.22;30.32
5609;BME280;2826;51.354;9.588;2023-04-05T13:20:24;98565.06;;;11.50;31.35
5609;BME280;2826;51.354;9.588;2023-04-05T13:22:52;98583.25;;;11.24;33.05
5609;BME280;2826;51.354;9.588;2023-04-05T13:25:20;98571.34;;;11.67;32.14
5609;BME280;2826;51.354;9.588;2023-04-05T13:27:48;98565.72;;;12.46;32.50
5609;BME280;2826;51.354;9.588;2023-04-05T13:30:16;98558.56;;;12.72;31.53
5609;BME280;2826;51.354;9.588;2023-04-05T13:32:45;98553.31;;;12.94;30.76
5609;BME280;2826;51.354;9.588;2023-04-05T13:35:14;98562.66;;;12.78;29.91
5609;BME280;2826;51.354;9.588;2023-04-05T13:37:42;98554.47;;;12.23;29.79
5609;BME280;2826;51.354;9.588;2023-04-05T13:40:10;98548.13;;;11.86;30.51
5609;BME280;2826;51.354;9.588;2023-04-05T13:42:38;98552.50;;;11.61;30.31
5609;BME280;2826;51.354;9.588;2023-04-05T13:45:07;98562.28;;;11.31;30.75
5609;BME280;2826;51.354;9.588;2023-04-05T13:48:14;98551.50;;;10.92;31.46
5609;BME280;2826;51.354;9.588;2023-04-05T13:51:05;98544.41;;;10.72;31.65
5609;BME280;2826;51.354;9.588;2023-04-05T13:53:33;98544.72;;;11.14;31.64
5609;BME280;2826;51.354;9.588;2023-04-05T13:56:02;98532.28;;;11.92;30.86
5609;BME280;2826;51.354;9.588;2023-04-05T13:58:32;98529.97;;;12.51;28.74
5609;BME280;2826;51.354;9.588;2023-04-05T14:01:02;98512.75;;;13.10;30.03
5609;BME280;2826;51.354;9.588;2023-04-05T14:03:32;98518.78;;;13.69;30.17
5609;BME280;2826;51.354;9.588;2023-04-05T14:06:01;98518.94;;;14.21;29.33